sensor_id;sensor_type;location;lat;lon;timestamp;temperature;humidity
68251;DHT22;55066;51.560;4.642;2024-02-14T00:02:07;8.84;99.99
68251;DHT22;55066;51.560;4.642;2024-02-14T00:04:33;8.89;99.99
68251;DHT22;55066;51.560;4.642;2024-02-14T00:07:02;8.89;99.99
68251;DHT22;55066;51.560;4.642;2024-02-14T00:09:30;8.89;99.99
68251;DHT22;55066;51.560;4.642;2024-02-14T00:12:02;8.90;99.99
68251;DHT22;55066;51.560;4.642;2024-02-14T00:14:28;8.89;99.99
68251;DHT22;55066;51.560;4.642;2024-02-14T00:16:54;8.91;99.99
68251;DHT22;55066;51.560;4.642;2024-02-14T00:19:20;8.93;99.99
68251;DHT22;55066;51.560;4.642;2024-02-14T00:21:47;8.96;99.99
68251;DHT22;55066;51.560;4.642;2024-02-14T00:24:14;8.90;99.99
68251;DHT22;55066;51.560;4.642;2024-02-14T00:26:41;8.96;99.99
68251;DHT22;55066;51.560;4.642;2024-02-14T00:29:23;8.96;99.99
68251;DHT22;55066;51.560;4.642;2024-02-14T00:31:52;8.96;99.99
68251;DHT22;55066;51.560;4.642;2024-02-14T00:34:43;9.01;99.99
68251;DHT22;55066;51.560;4.642;2024-02-14T00:37:11;9.03;99.99
68251;DHT22;55066;51.560;4.642;2024-02-14T00:39:36;9.07;99.99
68251;DHT22;55066;51.560;4.642;2024-02-14T00:42:02;9.11;99.99
68251;DHT22;55066;51.560;4.642;2024-02-14T00:44:28;9.11;99.99
68251;DHT22;55066;51.560;4.642;2024-02-14T00:46:58;9.13;99.99
68251;DHT22;55066;51.560;4.642;2024-02-14T00:49:28;9.11;99.99
68251;DHT22;55066;51.560;4.642;2024-02-14T00:51:56;9.13;99.99
68251;DHT22;55066;51.560;4.642;2024-02-14T00:54:24;9.11;99.99
68251;DHT22;55066;51.560;4.642;2024-02-14T00:56:49;9.14;99.99
68251;DHT22;55066;51.560;4.642;2024-02-14T00:59:20;9.17;99.99
68251;DHT22;55066;51.560;4.642;2024-02-14T01:01:52;9.20;99.99
68251;DHT22;55066;51.560;4.642;2024-02-14T01:04:19;9.21;99.99
68251;DHT22;55066;51.560;4.642;2024-02-14T01:06:50;9.21;99.99
68251;DHT22;55066;51.560;4.642;2024-02-14T01:09:18;9.28;99.99
68251;DHT22;55066;51.560;4.642;2024-02-14T01:11:47;9.27;99.99
68251;DHT22;55066;51.560;4.642;2024-02-14T01:14:16;9.30;99.99
68251;DHT22;55066;51.560;4.642;2024-02-14T01:16:43;9.28;99.99
68251;DHT22;55066;51.560;4.642;2024-02-14T01:19:10;9.32;99.99
68251;DHT22;55066;51.560;4.642;2024-02-14T01:21:46;9.35;99.99
68251;DHT22;55066;51.560;4.642;2024-02-14T01:24:19;9.34;99.99
68251;DHT22;55066;51.560;4.642;2024-02-14T01:26:46;9.35;99.99
68251;DHT22;55066;51.560;4.642;2024-02-14T01:29:12;9.32;99.99
68251;DHT22;55066;51.560;4.642;2024-02-14T01:31:39;9.41;99.99
68251;DHT22;55066;51.560;4.642;2024-02-14T01:34:06;9.41;99.99
68251;DHT22;55066;51.560;4.642;2024-02-14T01:36:32;9.42;99.99
68251;DHT22;55066;51.560;4.642;2024-02-14T01:39:01;9.41;99.99
68251;DHT22;55066;51.560;4.642;2024-02-14T01:41:36;9.35;99.99
68251;DHT22;55066;51.560;4.642;2024-02-14T01:44:05;9.31;99.99
68251;DHT22;55066;51.560;4.642;2024-02-14T01:46:36;9.32;99.99
68251;DHT22;55066;51.560;4.642;2024-02-14T01:49:04;9.38;99.99
68251;DHT22;55066;51.560;4.642;2024-02-14T01:51:31;9.35;99.99
68251;DHT22;55066;51.560;4.642;2024-02-14T01:54:00;9.41;99.99
68251;DHT22;55066;51.560;4.642;2024-02-14T01:56:25;9.35;99.99
68251;DHT22;55066;51.560;4.642;2024-02-14T01:58:53;9.34;99.99
68251;DHT22;55066;51.560;4.642;2024-02-14T02:01:21;9.30;99.99
68251;DHT22;55066;51.560;4.642;2024-02-14T02:03:50;9.31;99.99
68251;DHT22;55066;51.560;4.642;2024-02-14T02:06:19;9.32;99.99
68251;DHT22;55066;51.560;4.642;2024-02-14T02:08:48;9.30;99.99
68251;DHT22;55066;51.560;4.642;2024-02-14T02:11:19;9.34;99.99
68251;DHT22;55066;51.560;4.642;2024-02-14T02:13:48;9.34;99.99
68251;DHT22;55066;51.560;4.642;2024-02-14T02:16:16;9.31;99.99
68251;DHT22;55066;51.560;4.642;2024-02-14T02:18:45;9.34;99.99
68251;DHT22;55066;51.560;4.642;2024-02-14T02:21:11;9.35;99.99
68251;DHT22;55066;51.560;4.642;2024-02-14T02:23:39;9.32;99.99
68251;DHT22;55066;51.560;4.642;2024-02-14T02:26:08;9.35;99.99
68251;DHT22;55066;51.560;4.642;2024-02-14T02:28:35;9.35;99.99
68251;DHT22;55066;51.560;4.642;2024-02-14T02:31:01;9.42;99.99
68251;DHT22;55066;51.560;4.642;2024-02-14T02:33:28;9.44;99.99
68251;DHT22;55066;51.560;4.642;2024-02-14T02:35:56;9.44;99.99
68251;DHT22;55066;51.560;4.642;2024-02-14T02:38:24;9.46;99.99
68251;DHT22;55066;51.560;4.642;2024-02-14T02:40:58;9.51;99.99
68251;DHT22;55066;51.560;4.642;2024-02-14T02:43:28;9.49;99.99
68251;DHT22;55066;51.560;4.642;2024-02-14T02:45:54;9.52;99.99
68251;DHT22;55066;51.560;4.642;2024-02-14T02:48:20;9.55;99.99
68251;DHT22;55066;51.560;4.642;2024-02-14T02:50:50;9.55;99.99
68251;DHT22;55066;51.560;4.642;2024-02-14T02:53:19;9.55;99.99
68251;DHT22;55066;51.560;4.642;2024-02-14T02:55:49;9.58;99.99
68251;DHT22;55066;51.560;4.642;2024-02-14T02:58:20;9.58;99.99
68251;DHT22;55066;51.560;4.642;2024-02-14T03:00:47;9.59;99.99
68251;DHT22;55066;51.560;4.642;2024-02-14T03:03:15;9.65;99.99
68251;DHT22;55066;51.560;4.642;2024-02-14T03:05:43;9.65;99.99
68251;DHT22;55066;51.560;4.642;2024-02-14T03:08:12;9.69;99.99
68251;DHT22;55066;51.560;4.642;2024-02-14T03:10:42;9.76;99.99
68251;DHT22;55066;51.560;4.642;2024-02-14T03:13:09;9.73;99.99
68251;DHT22;55066;51.560;4.642;2024-02-14T03:15:39;9.76;99.99
68251;DHT22;55066;51.560;4.642;2024-02-14T03:18:05;9.78;99.99
68251;DHT22;55066;51.560;4.642;2024-02-14T03:20:35;9.85;99.99
68251;DHT22;55066;51.560;4.642;2024-02-14T03:23:02;9.86;99.99
68251;DHT22;55066;51.560;4.642;2024-02-14T03:25:31;9.86;99.99
68251;DHT22;55066;51.560;4.642;2024-02-14T03:27:58;9.87;99.99
68251;DHT22;55066;51.560;4.642;2024-02-14T03:30:37;9.92;99.99
68251;DHT22;55066;51.560;4.642;2024-02-14T03:33:07;9.92;99.99
68251;DHT22;55066;51.560;4.642;2024-02-14T03:35:35;9.96;99.99
68251;DHT22;55066;51.560;4.642;2024-02-14T03:38:05;9.97;99.99
68251;DHT22;55066;51.560;4.642;2024-02-14T03:40:36;9.96;99.99
68251;DHT22;55066;51.560;4.642;2024-02-14T03:43:04;9.97;99.99
68251;DHT22;55066;51.560;4.642;2024-02-14T03:45:37;9.99;99.99
68251;DHT22;55066;51.560;4.642;2024-02-14T03:48:06;10.02;99.99
68251;DHT22;55066;51.560;4.642;2024-02-14T03:50:35;9.99;99.99
68251;DHT22;55066;51.560;4.642;2024-02-14T03:53:02;9.96;99.99
68251;DHT22;55066;51.560;4.642;2024-02-14T03:55:41;9.99;99.99
68251;DHT22;55066;51.560;4.642;2024-02-14T03:58:09;10.00;99.99
68251;DHT22;55066;51.560;4.642;2024-02-14T04:00:37;9.96;99.99
68251;DHT22;55066;51.560;4.642;2024-02-14T04:03:03;9.99;99.99
68251;DHT22;55066;51.560;4.642;2024-02-14T04:05:29;10.02;99.99
68251;DHT22;55066;51.560;4.642;2024-02-14T04:07:55;9.99;99.99
68251;DHT22;55066;51.560;4.642;2024-02-14T04:10:21;10.00;99.99
68251;DHT22;55066;51.560;4.642;2024-02-14T04:12:48;10.02;99.99
68251;DHT22;55066;51.560;4.642;2024-02-14T04:15:14;10.02;99.99
68251;DHT22;55066;51.560;4.642;2024-02-14T04:17:42;10.00;99.99
68251;DHT22;55066;51.560;4.642;2024-02-14T04:20:10;10.02;99.99
68251;DHT22;55066;51.560;4.642;2024-02-14T04:22:40;10.00;99.99
68251;DHT22;55066;51.560;4.642;2024-02-14T04:25:07;9.97;99.99
68251;DHT22;55066;51.560;4.642;2024-02-14T04:27:35;9.99;99.99
68251;DHT22;55066;51.560;4.642;2024-02-14T04:30:01;10.00;99.99
68251;DHT22;55066;51.560;4.642;2024-02-14T04:32:39;10.00;99.99
68251;DHT22;55066;51.560;4.642;2024-02-14T04:35:13;9.96;99.99
68251;DHT22;55066;51.560;4.642;2024-02-14T04:37:44;9.96;99.99
68251;DHT22;55066;51.560;4.642;2024-02-14T04:40:14;9.92;99.99
68251;DHT22;55066;51.560;4.642;2024-02-14T04:42:41;9.90;99.99
68251;DHT22;55066;51.560;4.642;2024-02-14T04:45:10;9.90;99.99
68251;DHT22;55066;51.560;4.642;2024-02-14T04:47:38;9.89;99.99
68251;DHT22;55066;51.560;4.642;2024-02-14T04:50:04;9.92;99.99
68251;DHT22;55066;51.560;4.642;2024-02-14T04:52:31;9.89;99.99
68251;DHT22;55066;51.560;4.642;2024-02-14T04:55:21;9.86;99.99
68251;DHT22;55066;51.560;4.642;2024-02-14T04:57:48;9.85;99.99
68251;DHT22;55066;51.560;4.642;2024-02-14T05:00:14;9.81;99.99
68251;DHT22;55066;51.560;4.642;2024-02-14T05:02:41;9.79;99.99
68251;DHT22;55066;51.560;4.642;2024-02-14T05:05:08;9.82;99.99
68251;DHT22;55066;51.560;4.642;2024-02-14T05:07:35;9.82;99.99
68251;DHT22;55066;51.560;4.642;2024-02-14T05:10:02;9.76;99.99
68251;DHT22;55066;51.560;4.642;2024-02-14T05:12:28;9.76;99.99
68251;DHT22;55066;51.560;4.642;2024-02-14T05:14:58;9.76;99.99
68251;DHT22;55066;51.560;4.642;2024-02-14T05:17:24;9.76;99.99
68251;DHT22;55066;51.560;4.642;2024-02-14T05:19:50;9.73;99.99
68251;DHT22;55066;51.560;4.642;2024-02-14T05:22:17;9.79;99.99
68251;DHT22;55066;51.560;4.642;2024-02-14T05:24:43;9.79;99.99
68251;DHT22;55066;51.560;4.642;2024-02-14T05:27:10;9.75;99.99
68251;DHT22;55066;51.560;4.642;2024-02-14T05:29:36;9.79;99.99
68251;DHT22;55066;51.560;4.642;2024-02-14T05:32:02;9.78;99.99
68251;DHT22;55066;51.560;4.642;2024-02-14T05:34:30;9.83;99.99
68251;DHT22;55066;51.560;4.642;2024-02-14T05:36:55;9.78;99.99
68251;DHT22;55066;51.560;4.642;2024-02-14T05:39:21;9.81;99.99
68251;DHT22;55066;51.560;4.642;2024-02-14T05:41:50;9.82;99.99
68251;DHT22;55066;51.560;4.642;2024-02-14T05:44:20;9.86;99.99
68251;DHT22;55066;51.560;4.642;2024-02-14T05:46:50;9.85;99.99
68251;DHT22;55066;51.560;4.642;2024-02-14T05:49:15;9.85;99.99
68251;DHT22;55066;51.560;4.642;2024-02-14T05:51:43;9.86;99.99
68251;DHT22;55066;51.560;4.642;2024-02-14T05:54:10;9.89;99.99
68251;DHT22;55066;51.560;4.642;2024-02-14T05:56:37;9.92;99.99
68251;DHT22;55066;51.560;4.642;2024-02-14T05:59:03;9.89;99.99
68251;DHT22;55066;51.560;4.642;2024-02-14T06:01:30;9.90;99.99
68251;DHT22;55066;51.560;4.642;2024-02-14T06:03:58;9.94;99.99
68251;DHT22;55066;51.560;4.642;2024-02-14T06:06:24;9.97;99.99
68251;DHT22;55066;51.560;4.642;2024-02-14T06:08:51;10.02;99.99
68251;DHT22;55066;51.560;4.642;2024-02-14T06:11:18;9.99;99.99
68251;DHT22;55066;51.560;4.642;2024-02-14T06:13:47;10.02;99.99
68251;DHT22;55066;51.560;4.642;2024-02-14T06:16:13;10.03;99.99
68251;DHT22;55066;51.560;4.642;2024-02-14T06:18:40;10.07;99.99
68251;DHT22;55066;51.560;4.642;2024-02-14T06:21:10;10.09;99.99
68251;DHT22;55066;51.560;4.642;2024-02-14T06:23:38;10.06;99.99
68251;DHT22;55066;51.560;4.642;2024-02-14T06:26:04;10.04;99.99
68251;DHT22;55066;51.560;4.642;2024-02-14T06:28:34;10.06;99.99
68251;DHT22;55066;51.560;4.642;2024-02-14T06:31:01;10.07;99.99
68251;DHT22;55066;51.560;4.642;2024-02-14T06:33:28;10.11;99.99
68251;DHT22;55066;51.560;4.642;2024-02-14T06:35:58;10.10;99.99
68251;DHT22;55066;51.560;4.642;2024-02-14T06:38:24;10.13;99.99
68251;DHT22;55066;51.560;4.642;2024-02-14T06:40:51;10.06;99.99
68251;DHT22;55066;51.560;4.642;2024-02-14T06:43:18;10.06;99.99
68251;DHT22;55066;51.560;4.642;2024-02-14T06:45:46;10.04;99.99
68251;DHT22;55066;51.560;4.642;2024-02-14T06:48:15;10.07;99.99
68251;DHT22;55066;51.560;4.642;2024-02-14T06:50:41;10.06;99.99
68251;DHT22;55066;51.560;4.642;2024-02-14T06:53:08;10.06;99.99
68251;DHT22;55066;51.560;4.642;2024-02-14T06:55:34;10.11;99.99
68251;DHT22;55066;51.560;4.642;2024-02-14T06:58:01;10.14;99.99
68251;DHT22;55066;51.560;4.642;2024-02-14T07:00:27;10.16;99.99
68251;DHT22;55066;51.560;4.642;2024-02-14T07:02:56;10.17;99.99
68251;DHT22;55066;51.560;4.642;2024-02-14T07:05:23;10.13;99.99
68251;DHT22;55066;51.560;4.642;2024-02-14T07:07:56;10.16;99.99
68251;DHT22;55066;51.560;4.642;2024-02-14T07:10:24;10.16;99.99
68251;DHT22;55066;51.560;4.642;2024-02-14T07:12:52;10.14;99.99
68251;DHT22;55066;51.560;4.642;2024-02-14T07:15:21;10.18;99.99
68251;DHT22;55066;51.560;4.642;2024-02-14T07:17:47;10.20;99.99
68251;DHT22;55066;51.560;4.642;2024-02-14T07:20:12;10.21;99.99
68251;DHT22;55066;51.560;4.642;2024-02-14T07:22:38;10.22;99.99
68251;DHT22;55066;51.560;4.642;2024-02-14T07:25:06;10.28;99.99
68251;DHT22;55066;51.560;4.642;2024-02-14T07:27:35;10.31;99.99
68251;DHT22;55066;51.560;4.642;2024-02-14T07:30:01;10.30;99.99
68251;DHT22;55066;51.560;4.642;2024-02-14T07:32:27;10.30;99.99
68251;DHT22;55066;51.560;4.642;2024-02-14T07:35:02;10.34;99.99
68251;DHT22;55066;51.560;4.642;2024-02-14T07:37:30;10.36;99.99
68251;DHT22;55066;51.560;4.642;2024-02-14T07:39:56;10.44;99.99
68251;DHT22;55066;51.560;4.642;2024-02-14T07:42:23;10.48;99.99
68251;DHT22;55066;51.560;4.642;2024-02-14T07:44:48;10.47;99.99
68251;DHT22;55066;51.560;4.642;2024-02-14T07:47:15;10.49;99.99
68251;DHT22;55066;51.560;4.642;2024-02-14T07:49:42;10.48;99.99
68251;DHT22;55066;51.560;4.642;2024-02-14T07:52:08;10.51;99.99
68251;DHT22;55066;51.560;4.642;2024-02-14T07:54:35;10.52;99.99
68251;DHT22;55066;51.560;4.642;2024-02-14T07:57:01;10.54;99.99
68251;DHT22;55066;51.560;4.642;2024-02-14T07:59:26;10.51;99.99
68251;DHT22;55066;51.560;4.642;2024-02-14T08:01:56;10.55;99.99
68251;DHT22;55066;51.560;4.642;2024-02-14T08:04:24;10.62;99.99
68251;DHT22;55066;51.560;4.642;2024-02-14T08:06:50;10.64;99.99
68251;DHT22;55066;51.560;4.642;2024-02-14T08:09:17;10.61;99.99
68251;DHT22;55066;51.560;4.642;2024-02-14T08:11:45;10.66;99.99
68251;DHT22;55066;51.560;4.642;2024-02-14T08:14:11;10.68;99.99
68251;DHT22;55066;51.560;4.642;2024-02-14T08:16:39;10.69;99.99
68251;DHT22;55066;51.560;4.642;2024-02-14T08:19:07;10.73;99.99
68251;DHT22;55066;51.560;4.642;2024-02-14T08:21:32;10.79;99.99
68251;DHT22;55066;51.560;4.642;2024-02-14T08:23:58;10.80;99.99
68251;DHT22;55066;51.560;4.642;2024-02-14T08:26:24;10.88;99.99
68251;DHT22;55066;51.560;4.642;2024-02-14T08:28:49;10.91;99.99
68251;DHT22;55066;51.560;4.642;2024-02-14T08:31:17;10.88;99.99
68251;DHT22;55066;51.560;4.642;2024-02-14T08:33:47;10.89;99.99
68251;DHT22;55066;51.560;4.642;2024-02-14T08:36:17;10.91;99.99
68251;DHT22;55066;51.560;4.642;2024-02-14T08:38:45;10.91;99.99
68251;DHT22;55066;51.560;4.642;2024-02-14T08:41:10;10.95;99.99
68251;DHT22;55066;51.560;4.642;2024-02-14T08:43:39;11.03;99.99
68251;DHT22;55066;51.560;4.642;2024-02-14T08:46:10;11.02;99.99
68251;DHT22;55066;51.560;4.642;2024-02-14T08:48:42;11.06;99.99
68251;DHT22;55066;51.560;4.642;2024-02-14T08:51:12;11.10;99.99
68251;DHT22;55066;51.560;4.642;2024-02-14T08:53:39;11.12;99.99
68251;DHT22;55066;51.560;4.642;2024-02-14T08:56:08;11.17;99.99
68251;DHT22;55066;51.560;4.642;2024-02-14T08:58:34;11.20;99.99
68251;DHT22;55066;51.560;4.642;2024-02-14T09:01:05;11.27;99.99
68251;DHT22;55066;51.560;4.642;2024-02-14T09:03:35;11.31;99.99
68251;DHT22;55066;51.560;4.642;2024-02-14T09:06:01;11.35;99.99
68251;DHT22;55066;51.560;4.642;2024-02-14T09:08:30;11.41;99.99
68251;DHT22;55066;51.560;4.642;2024-02-14T09:10:57;11.50;99.99
68251;DHT22;55066;51.560;4.642;2024-02-14T09:13:26;11.54;99.99
68251;DHT22;55066;51.560;4.642;2024-02-14T09:15:53;11.52;99.99
68251;DHT22;55066;51.560;4.642;2024-02-14T09:18:21;11.51;99.99
68251;DHT22;55066;51.560;4.642;2024-02-14T09:20:52;11.45;99.99
68251;DHT22;55066;51.560;4.642;2024-02-14T09:23:19;11.37;99.99
68251;DHT22;55066;51.560;4.642;2024-02-14T09:25:48;11.38;99.99
68251;DHT22;55066;51.560;4.642;2024-02-14T09:28:15;11.41;99.99
68251;DHT22;55066;51.560;4.642;2024-02-14T09:30:42;11.47;99.99
68251;DHT22;55066;51.560;4.642;2024-02-14T09:33:07;11.51;99.99
68251;DHT22;55066;51.560;4.642;2024-02-14T09:35:37;11.54;99.99
68251;DHT22;55066;51.560;4.642;2024-02-14T09:38:05;11.58;99.99
68251;DHT22;55066;51.560;4.642;2024-02-14T09:40:31;11.62;99.99
68251;DHT22;55066;51.560;4.642;2024-02-14T09:43:02;11.75;99.99
68251;DHT22;55066;51.560;4.642;2024-02-14T09:45:31;11.75;99.99
68251;DHT22;55066;51.560;4.642;2024-02-14T09:48:09;11.77;99.99
68251;DHT22;55066;51.560;4.642;2024-02-14T09:50:36;11.81;99.99
68251;DHT22;55066;51.560;4.642;2024-02-14T09:53:07;11.74;99.99
68251;DHT22;55066;51.560;4.642;2024-02-14T09:55:33;11.74;99.99
68251;DHT22;55066;51.560;4.642;2024-02-14T09:58:00;11.72;99.99
68251;DHT22;55066;51.560;4.642;2024-02-14T10:00:34;11.78;99.99
68251;DHT22;55066;51.560;4.642;2024-02-14T10:03:04;11.82;99.99
68251;DHT22;55066;51.560;4.642;2024-02-14T10:05:34;11.79;99.99
68251;DHT22;55066;51.560;4.642;2024-02-14T10:08:01;11.81;99.99
68251;DHT22;55066;51.560;4.642;2024-02-14T10:10:31;11.74;99.99
68251;DHT22;55066;51.560;4.642;2024-02-14T10:13:05;11.74;99.99
68251;DHT22;55066;51.560;4.642;2024-02-14T10:15:33;11.74;99.99
68251;DHT22;55066;51.560;4.642;2024-02-14T10:18:06;11.81;99.99
68251;DHT22;55066;51.560;4.642;2024-02-14T10:20:35;11.72;99.99
68251;DHT22;55066;51.560;4.642;2024-02-14T10:23:11;11.67;99.99
68251;DHT22;55066;51.560;4.642;2024-02-14T10:25:37;11.68;99.99
68251;DHT22;55066;51.560;4.642;2024-02-14T10:28:07;11.68;99.99
68251;DHT22;55066;51.560;4.642;2024-02-14T10:30:36;11.65;99.99
68251;DHT22;55066;51.560;4.642;2024-02-14T10:33:04;11.69;99.99
68251;DHT22;55066;51.560;4.642;2024-02-14T10:35:31;11.69;99.99
68251;DHT22;55066;51.560;4.642;2024-02-14T10:37:59;11.71;99.99
68251;DHT22;55066;51.560;4.642;2024-02-14T10:40:28;11.72;99.99
68251;DHT22;55066;51.560;4.642;2024-02-14T10:42:56;11.75;99.99
68251;DHT22;55066;51.560;4.642;2024-02-14T10:45:24;11.78;99.99
68251;DHT22;55066;51.560;4.642;2024-02-14T10:47:53;11.85;99.99
68251;DHT22;55066;51.560;4.642;2024-02-14T10:50:24;11.82;99.99
68251;DHT22;55066;51.560;4.642;2024-02-14T10:52:57;11.79;99.99
68251;DHT22;55066;51.560;4.642;2024-02-14T10:55:30;11.77;99.99
68251;DHT22;55066;51.560;4.642;2024-02-14T10:57:57;11.77;99.99
68251;DHT22;55066;51.560;4.642;2024-02-14T11:00:23;11.71;99.99
68251;DHT22;55066;51.560;4.642;2024-02-14T11:02:52;11.67;99.99
68251;DHT22;55066;51.560;4.642;2024-02-14T11:05:21;11.62;99.99
68251;DHT22;55066;51.560;4.642;2024-02-14T11:08:08;11.65;99.99
68251;DHT22;55066;51.560;4.642;2024-02-14T11:10:37;11.64;99.99
68251;DHT22;55066;51.560;4.642;2024-02-14T11:13:09;11.61;99.99
68251;DHT22;55066;51.560;4.642;2024-02-14T11:15:35;11.60;99.99
68251;DHT22;55066;51.560;4.642;2024-02-14T11:18:05;11.61;99.99
68251;DHT22;55066;51.560;4.642;2024-02-14T11:20:34;11.65;99.99
68251;DHT22;55066;51.560;4.642;2024-02-14T11:23:05;11.65;99.99
68251;DHT22;55066;51.560;4.642;2024-02-14T11:25:39;11.67;99.99
68251;DHT22;55066;51.560;4.642;2024-02-14T11:28:19;11.72;99.99
68251;DHT22;55066;51.560;4.642;2024-02-14T11:30:49;11.67;99.99
68251;DHT22;55066;51.560;4.642;2024-02-14T11:33:24;11.65;99.99
68251;DHT22;55066;51.560;4.642;2024-02-14T11:35:52;11.69;99.99
68251;DHT22;55066;51.560;4.642;2024-02-14T11:38:22;11.72;99.99
68251;DHT22;55066;51.560;4.642;2024-02-14T11:40:49;11.68;99.99
68251;DHT22;55066;51.560;4.642;2024-02-14T11:43:21;11.77;99.99
68251;DHT22;55066;51.560;4.642;2024-02-14T11:45:47;11.71;99.99
68251;DHT22;55066;51.560;4.642;2024-02-14T11:48:16;11.72;99.99
68251;DHT22;55066;51.560;4.642;2024-02-14T11:50:45;11.72;99.99
68251;DHT22;55066;51.560;4.642;2024-02-14T11:53:17;11.74;99.99
68251;DHT22;55066;51.560;4.642;2024-02-14T11:55:46;11.74;99.99
68251;DHT22;55066;51.560;4.642;2024-02-14T11:58:17;11.77;99.99
68251;DHT22;55066;51.560;4.642;2024-02-14T12:00:44;11.75;99.99
68251;DHT22;55066;51.560;4.642;2024-02-14T12:03:22;11.81;99.99
68251;DHT22;55066;51.560;4.642;2024-02-14T12:05:52;11.83;99.99
68251;DHT22;55066;51.560;4.642;2024-02-14T12:08:19;11.90;99.99
68251;DHT22;55066;51.560;4.642;2024-02-14T12:10:58;11.93;99.99
68251;DHT22;55066;51.560;4.642;2024-02-14T12:13:27;11.95;99.99
68251;DHT22;55066;51.560;4.642;2024-02-14T12:16:01;11.99;99.99
68251;DHT22;55066;51.560;4.642;2024-02-14T12:18:29;11.98;99.99
68251;DHT22;55066;51.560;4.642;2024-02-14T12:21:05;12.09;99.99
68251;DHT22;55066;51.560;4.642;2024-02-14T12:23:39;12.19;99.99
68251;DHT22;55066;51.560;4.642;2024-02-14T12:26:07;12.16;99.99
68251;DHT22;55066;51.560;4.642;2024-02-14T12:28:45;12.17;99.99
68251;DHT22;55066;51.560;4.642;2024-02-14T12:31:24;12.23;99.99
68251;DHT22;55066;51.560;4.642;2024-02-14T12:33:53;12.26;99.99
68251;DHT22;55066;51.560;4.642;2024-02-14T12:36:21;12.23;99.99
68251;DHT22;55066;51.560;4.642;2024-02-14T12:38:48;12.24;99.99
68251;DHT22;55066;51.560;4.642;2024-02-14T12:41:13;12.34;99.99
68251;DHT22;55066;51.560;4.642;2024-02-14T12:43:39;12.37;99.99
68251;DHT22;55066;51.560;4.642;2024-02-14T12:46:08;12.47;99.99
68251;DHT22;55066;51.560;4.642;2024-02-14T12:48:38;12.47;99.99
68251;DHT22;55066;51.560;4.642;2024-02-14T12:51:07;12.45;99.99
68251;DHT22;55066;51.560;4.642;2024-02-14T12:53:34;12.47;99.99
68251;DHT22;55066;51.560;4.642;2024-02-14T12:56:00;12.53;99.99
68251;DHT22;55066;51.560;4.642;2024-02-14T12:58:25;12.51;99.99
68251;DHT22;55066;51.560;4.642;2024-02-14T13:00:52;12.48;99.99
68251;DHT22;55066;51.560;4.642;2024-02-14T13:03:17;12.45;99.99
68251;DHT22;55066;51.560;4.642;2024-02-14T13:05:44;12.45;99.99
68251;DHT22;55066;51.560;4.642;2024-02-14T13:08:10;12.37;99.99
68251;DHT22;55066;51.560;4.642;2024-02-14T13:10:39;12.37;99.99
68251;DHT22;55066;51.560;4.642;2024-02-14T13:13:04;12.36;99.99
68251;DHT22;55066;51.560;4.642;2024-02-14T13:15:30;12.33;99.99
68251;DHT22;55066;51.560;4.642;2024-02-14T13:17:58;12.32;99.99
68251;DHT22;55066;51.560;4.642;2024-02-14T13:20:25;12.24;99.99
68251;DHT22;55066;51.560;4.642;2024-02-14T13:22:53;12.24;99.99
68251;DHT22;55066;51.560;4.642;2024-02-14T13:25:22;12.27;99.99
68251;DHT22;55066;51.560;4.642;2024-02-14T13:28:05;12.30;99.99
68251;DHT22;55066;51.560;4.642;2024-02-14T13:30:31;12.30;99.99
68251;DHT22;55066;51.560;4.642;2024-02-14T13:33:00;12.30;99.99
68251;DHT22;55066;51.560;4.642;2024-02-14T13:35:26;12.32;99.99
68251;DHT22;55066;51.560;4.642;2024-02-14T13:37:52;12.26;99.99
68251;DHT22;55066;51.560;4.642;2024-02-14T13:40:19;12.26;99.99
68251;DHT22;55066;51.560;4.642;2024-02-14T13:42:45;12.27;99.99
68251;DHT22;55066;51.560;4.642;2024-02-14T13:45:12;12.19;99.99
68251;DHT22;55066;51.560;4.642;2024-02-14T13:47:39;12.24;99.99
68251;DHT22;55066;51.560;4.642;2024-02-14T13:50:08;12.24;99.99
68251;DHT22;55066;51.560;4.642;2024-02-14T13:52:36;12.29;99.99
68251;DHT22;55066;51.560;4.642;2024-02-14T13:55:03;12.32;99.99
68251;DHT22;55066;51.560;4.642;2024-02-14T13:57:39;12.32;99.99
68251;DHT22;55066;51.560;4.642;2024-02-14T14:00:10;12.33;99.99
68251;DHT22;55066;51.560;4.642;2024-02-14T14:02:42;12.34;99.99
68251;DHT22;55066;51.560;4.642;2024-02-14T14:05:10;12.27;99.99
68251;DHT22;55066;51.560;4.642;2024-02-14T14:07:38;12.33;99.99
68251;DHT22;55066;51.560;4.642;2024-02-14T14:10:05;12.38;99.99
68251;DHT22;55066;51.560;4.642;2024-02-14T14:12:31;12.43;99.99
68251;DHT22;55066;51.560;4.642;2024-02-14T14:14:57;12.44;99.99
68251;DHT22;55066;51.560;4.642;2024-02-14T14:17:23;12.38;99.99
68251;DHT22;55066;51.560;4.642;2024-02-14T14:19:48;12.43;99.99
68251;DHT22;55066;51.560;4.642;2024-02-14T14:22:14;12.43;99.99
68251;DHT22;55066;51.560;4.642;2024-02-14T14:24:42;12.41;99.99
68251;DHT22;55066;51.560;4.642;2024-02-14T14:27:07;12.47;99.99
68251;DHT22;55066;51.560;4.642;2024-02-14T14:29:39;12.47;99.99
68251;DHT22;55066;51.560;4.642;2024-02-14T14:32:25;12.41;99.99
68251;DHT22;55066;51.560;4.642;2024-02-14T14:34:52;12.43;99.99
68251;DHT22;55066;51.560;4.642;2024-02-14T14:37:26;12.40;99.99
68251;DHT22;55066;51.560;4.642;2024-02-14T14:39:53;12.43;99.99
68251;DHT22;55066;51.560;4.642;2024-02-14T14:42:20;12.41;99.99
68251;DHT22;55066;51.560;4.642;2024-02-14T14:44:46;12.44;99.99
68251;DHT22;55066;51.560;4.642;2024-02-14T14:47:13;12.45;99.99
68251;DHT22;55066;51.560;4.642;2024-02-14T14:49:41;12.43;99.99
68251;DHT22;55066;51.560;4.642;2024-02-14T14:52:09;12.41;99.99
68251;DHT22;55066;51.560;4.642;2024-02-14T14:54:41;12.44;99.99
68251;DHT22;55066;51.560;4.642;2024-02-14T14:57:10;12.45;99.99
68251;DHT22;55066;51.560;4.642;2024-02-14T14:59:40;12.41;99.99
68251;DHT22;55066;51.560;4.642;2024-02-14T15:02:08;12.38;99.99
68251;DHT22;55066;51.560;4.642;2024-02-14T15:04:37;12.40;99.99
68251;DHT22;55066;51.560;4.642;2024-02-14T15:07:05;12.40;99.99
68251;DHT22;55066;51.560;4.642;2024-02-14T15:09:31;12.41;99.99
68251;DHT22;55066;51.560;4.642;2024-02-14T15:11:58;12.43;99.99
68251;DHT22;55066;51.560;4.642;2024-02-14T15:14:27;12.47;99.99
68251;DHT22;55066;51.560;4.642;2024-02-14T15:17:14;12.48;99.99
68251;DHT22;55066;51.560;4.642;2024-02-14T15:19:42;12.53;99.99
68251;DHT22;55066;51.560;4.642;2024-02-14T15:22:08;12.47;99.99
68251;DHT22;55066;51.560;4.642;2024-02-14T15:24:33;12.48;99.99
68251;DHT22;55066;51.560;4.642;2024-02-14T15:27:04;12.50;99.99
68251;DHT22;55066;51.560;4.642;2024-02-14T15:29:30;12.47;99.99
68251;DHT22;55066;51.560;4.642;2024-02-14T15:32:31;12.51;99.99
68251;DHT22;55066;51.560;4.642;2024-02-14T15:35:17;12.48;99.99
68251;DHT22;55066;51.560;4.642;2024-02-14T15:37:44;12.47;99.99
68251;DHT22;55066;51.560;4.642;2024-02-14T15:40:16;12.48;99.99
68251;DHT22;55066;51.560;4.642;2024-02-14T15:42:43;12.48;99.99
68251;DHT22;55066;51.560;4.642;2024-02-14T15:45:09;12.45;99.99
68251;DHT22;55066;51.560;4.642;2024-02-14T15:47:44;12.47;99.99